sensor_id;sensor_type;location;lat;lon;timestamp;P1;durP1;ratioP1;P2;durP2;ratioP2
71162;SDS011;58858;50.948;6.566;2022-12-05T00:00:47;42.65;;;22.15;;
71162;SDS011;58858;50.948;6.566;2022-12-05T00:10:48;37.83;;;20.50;;
71162;SDS011;58858;50.948;6.566;2022-12-05T00:20:50;37.10;;;20.00;;
71162;SDS011;58858;50.948;6.566;2022-12-05T00:30:51;40.85;;;22.05;;
71162;SDS011;58858;50.948;6.566;2022-12-05T00:40:52;36.60;;;19.38;;
71162;SDS011;58858;50.948;6.566;2022-12-05T00:51:07;39.53;;;21.17;;
71162;SDS011;58858;50.948;6.566;2022-12-05T01:01:17;41.55;;;23.20;;
71162;SDS011;58858;50.948;6.566;2022-12-05T01:11:21;43.65;;;22.63;;
71162;SDS011;58858;50.948;6.566;2022-12-05T01:21:23;38.13;;;20.10;;
71162;SDS011;58858;50.948;6.566;2022-12-05T01:31:26;34.83;;;19.50;;
71162;SDS011;58858;50.948;6.566;2022-12-05T01:41:32;36.25;;;21.20;;
71162;SDS011;58858;50.948;6.566;2022-12-05T02:01:37;35.95;;;19.27;;
71162;SDS011;58858;50.948;6.566;2022-12-05T02:11:52;34.65;;;20.63;;
71162;SDS011;58858;50.948;6.566;2022-12-05T02:21:59;42.35;;;20.30;;
71162;SDS011;58858;50.948;6.566;2022-12-05T02:42:47;39.95;;;20.55;;
71162;SDS011;58858;50.948;6.566;2022-12-05T02:52:52;39.28;;;21.20;;
71162;SDS011;58858;50.948;6.566;2022-12-05T03:02:57;39.10;;;18.92;;
71162;SDS011;58858;50.948;6.566;2022-12-05T03:23:04;36.35;;;18.58;;
71162;SDS011;58858;50.948;6.566;2022-12-05T03:33:13;34.40;;;19.45;;
71162;SDS011;58858;50.948;6.566;2022-12-05T03:43:26;30.13;;;17.60;;
71162;SDS011;58858;50.948;6.566;2022-12-05T03:53:37;38.92;;;19.10;;
71162;SDS011;58858;50.948;6.566;2022-12-05T04:04:04;38.58;;;20.45;;
71162;SDS011;58858;50.948;6.566;2022-12-05T04:14:07;37.67;;;20.90;;
71162;SDS011;58858;50.948;6.566;2022-12-05T04:24:17;32.13;;;16.95;;
71162;SDS011;58858;50.948;6.566;2022-12-05T04:34:40;37.30;;;17.58;;
71162;SDS011;58858;50.948;6.566;2022-12-05T04:44:49;37.03;;;18.77;;
71162;SDS011;58858;50.948;6.566;2022-12-05T04:54:53;37.95;;;18.73;;
71162;SDS011;58858;50.948;6.566;2022-12-05T05:04:57;36.95;;;17.55;;
71162;SDS011;58858;50.948;6.566;2022-12-05T05:15:01;33.35;;;18.23;;
71162;SDS011;58858;50.948;6.566;2022-12-05T05:25:02;32.65;;;16.98;;
71162;SDS011;58858;50.948;6.566;2022-12-05T05:35:03;32.90;;;18.50;;
71162;SDS011;58858;50.948;6.566;2022-12-05T05:45:04;42.03;;;20.58;;
71162;SDS011;58858;50.948;6.566;2022-12-05T05:55:06;36.92;;;16.90;;
71162;SDS011;58858;50.948;6.566;2022-12-05T06:05:08;46.08;;;19.50;;
71162;SDS011;58858;50.948;6.566;2022-12-05T06:15:09;37.92;;;19.20;;
71162;SDS011;58858;50.948;6.566;2022-12-05T06:25:11;36.80;;;19.05;;
71162;SDS011;58858;50.948;6.566;2022-12-05T06:35:12;39.40;;;18.55;;
71162;SDS011;58858;50.948;6.566;2022-12-05T06:45:16;33.38;;;17.50;;
71162;SDS011;58858;50.948;6.566;2022-12-05T06:55:17;34.05;;;17.83;;
71162;SDS011;58858;50.948;6.566;2022-12-05T07:05:18;41.50;;;19.38;;
71162;SDS011;58858;50.948;6.566;2022-12-05T07:15:19;34.83;;;19.17;;
71162;SDS011;58858;50.948;6.566;2022-12-05T07:25:21;37.70;;;18.15;;
71162;SDS011;58858;50.948;6.566;2022-12-05T07:35:23;40.42;;;20.30;;
71162;SDS011;58858;50.948;6.566;2022-12-05T07:45:24;30.52;;;19.05;;
71162;SDS011;58858;50.948;6.566;2022-12-05T07:55:25;31.77;;;16.88;;
71162;SDS011;58858;50.948;6.566;2022-12-05T08:05:26;36.30;;;18.38;;
71162;SDS011;58858;50.948;6.566;2022-12-05T08:15:27;39.50;;;20.00;;
71162;SDS011;58858;50.948;6.566;2022-12-05T08:25:28;43.05;;;19.38;;
71162;SDS011;58858;50.948;6.566;2022-12-05T08:35:30;25.83;;;16.77;;
71162;SDS011;58858;50.948;6.566;2022-12-05T08:45:31;30.20;;;16.73;;
71162;SDS011;58858;50.948;6.566;2022-12-05T08:55:35;30.45;;;16.25;;
71162;SDS011;58858;50.948;6.566;2022-12-05T09:05:37;21.47;;;14.30;;
71162;SDS011;58858;50.948;6.566;2022-12-05T09:15:38;26.98;;;16.52;;
71162;SDS011;58858;50.948;6.566;2022-12-05T09:25:39;29.85;;;16.75;;
71162;SDS011;58858;50.948;6.566;2022-12-05T09:35:40;38.20;;;17.08;;
71162;SDS011;58858;50.948;6.566;2022-12-05T09:45:45;36.15;;;19.52;;
71162;SDS011;58858;50.948;6.566;2022-12-05T09:56:25;28.40;;;16.20;;
71162;SDS011;58858;50.948;6.566;2022-12-05T10:06:40;29.73;;;18.73;;
71162;SDS011;58858;50.948;6.566;2022-12-05T10:17:08;25.88;;;15.40;;
71162;SDS011;58858;50.948;6.566;2022-12-05T10:27:19;27.13;;;15.57;;
71162;SDS011;58858;50.948;6.566;2022-12-05T10:37:37;23.13;;;15.50;;
71162;SDS011;58858;50.948;6.566;2022-12-05T10:47:39;28.75;;;18.05;;
71162;SDS011;58858;50.948;6.566;2022-12-05T10:57:40;26.88;;;17.83;;
71162;SDS011;58858;50.948;6.566;2022-12-05T11:07:45;29.95;;;18.42;;
71162;SDS011;58858;50.948;6.566;2022-12-05T11:17:48;25.30;;;17.13;;
71162;SDS011;58858;50.948;6.566;2022-12-05T11:27:50;23.38;;;15.90;;
71162;SDS011;58858;50.948;6.566;2022-12-05T11:37:55;25.67;;;17.88;;
71162;SDS011;58858;50.948;6.566;2022-12-05T12:18:55;30.23;;;19.25;;
71162;SDS011;58858;50.948;6.566;2022-12-05T12:29:06;28.60;;;18.90;;
71162;SDS011;58858;50.948;6.566;2022-12-05T12:39:50;33.63;;;20.38;;
71162;SDS011;58858;50.948;6.566;2022-12-05T12:50:08;33.08;;;20.98;;
71162;SDS011;58858;50.948;6.566;2022-12-05T13:10:36;39.42;;;23.52;;
71162;SDS011;58858;50.948;6.566;2022-12-05T13:20:40;39.08;;;24.63;;
71162;SDS011;58858;50.948;6.566;2022-12-05T13:30:47;33.03;;;21.33;;
71162;SDS011;58858;50.948;6.566;2022-12-05T13:40:57;37.72;;;22.17;;
71162;SDS011;58858;50.948;6.566;2022-12-05T13:51:26;38.88;;;24.55;;
71162;SDS011;58858;50.948;6.566;2022-12-05T14:01:42;36.90;;;21.83;;
71162;SDS011;58858;50.948;6.566;2022-12-05T14:22:16;28.35;;;18.95;;
71162;SDS011;58858;50.948;6.566;2022-12-05T14:32:41;38.17;;;24.27;;
71162;SDS011;58858;50.948;6.566;2022-12-05T14:42:51;31.10;;;21.15;;
71162;SDS011;58858;50.948;6.566;2022-12-05T14:53:12;27.23;;;17.58;;
71162;SDS011;58858;50.948;6.566;2022-12-05T15:03:31;23.17;;;17.23;;
71162;SDS011;58858;50.948;6.566;2022-12-05T15:24:13;20.25;;;15.60;;
71162;SDS011;58858;50.948;6.566;2022-12-05T15:44:43;16.50;;;13.30;;
71162;SDS011;58858;50.948;6.566;2022-12-05T15:54:44;16.92;;;12.75;;
71162;SDS011;58858;50.948;6.566;2022-12-05T16:04:49;22.40;;;15.60;;
71162;SDS011;58858;50.948;6.566;2022-12-05T16:15:00;22.85;;;16.52;;
71162;SDS011;58858;50.948;6.566;2022-12-05T16:25:16;20.83;;;15.98;;
71162;SDS011;58858;50.948;6.566;2022-12-05T16:45:42;19.23;;;14.80;;
71162;SDS011;58858;50.948;6.566;2022-12-05T16:55:44;19.50;;;14.65;;
71162;SDS011;58858;50.948;6.566;2022-12-05T17:05:47;18.48;;;13.63;;
71162;SDS011;58858;50.948;6.566;2022-12-05T17:15:48;21.90;;;15.98;;
71162;SDS011;58858;50.948;6.566;2022-12-05T17:25:50;18.27;;;14.55;;
71162;SDS011;58858;50.948;6.566;2022-12-05T17:35:52;14.50;;;11.80;;
71162;SDS011;58858;50.948;6.566;2022-12-05T17:45:53;14.30;;;11.25;;
71162;SDS011;58858;50.948;6.566;2022-12-05T17:55:54;17.25;;;12.75;;
71162;SDS011;58858;50.948;6.566;2022-12-05T18:05:56;20.80;;;15.43;;
71162;SDS011;58858;50.948;6.566;2022-12-05T18:15:57;20.52;;;15.27;;
71162;SDS011;58858;50.948;6.566;2022-12-05T18:25:58;30.27;;;16.40;;
71162;SDS011;58858;50.948;6.566;2022-12-05T18:36:02;21.08;;;14.63;;
71162;SDS011;58858;50.948;6.566;2022-12-05T18:46:04;21.80;;;12.98;;
71162;SDS011;58858;50.948;6.566;2022-12-05T18:56:06;22.65;;;14.38;;
71162;SDS011;58858;50.948;6.566;2022-12-05T19:06:18;28.20;;;16.17;;
71162;SDS011;58858;50.948;6.566;2022-12-05T19:16:21;21.40;;;15.50;;
71162;SDS011;58858;50.948;6.566;2022-12-05T19:26:22;18.40;;;12.88;;
71162;SDS011;58858;50.948;6.566;2022-12-05T19:36:25;26.63;;;15.73;;
71162;SDS011;58858;50.948;6.566;2022-12-05T19:46:28;25.20;;;12.73;;
71162;SDS011;58858;50.948;6.566;2022-12-05T19:56:30;25.40;;;16.55;;
71162;SDS011;58858;50.948;6.566;2022-12-05T20:06:34;21.40;;;16.00;;
71162;SDS011;58858;50.948;6.566;2022-12-05T20:16:36;28.23;;;18.25;;
71162;SDS011;58858;50.948;6.566;2022-12-05T20:26:38;25.88;;;18.27;;
71162;SDS011;58858;50.948;6.566;2022-12-05T20:36:41;19.73;;;14.27;;
71162;SDS011;58858;50.948;6.566;2022-12-05T20:46:42;22.10;;;15.32;;
71162;SDS011;58858;50.948;6.566;2022-12-05T20:56:46;24.33;;;17.10;;
71162;SDS011;58858;50.948;6.566;2022-12-05T21:06:48;23.83;;;16.80;;
71162;SDS011;58858;50.948;6.566;2022-12-05T21:16:49;23.02;;;15.98;;
71162;SDS011;58858;50.948;6.566;2022-12-05T21:26:52;25.02;;;16.92;;
71162;SDS011;58858;50.948;6.566;2022-12-05T21:36:53;30.00;;;17.33;;
71162;SDS011;58858;50.948;6.566;2022-12-05T21:46:54;26.10;;;15.63;;
71162;SDS011;58858;50.948;6.566;2022-12-05T21:56:56;21.83;;;15.63;;
71162;SDS011;58858;50.948;6.566;2022-12-05T22:06:57;27.92;;;16.33;;
71162;SDS011;58858;50.948;6.566;2022-12-05T22:16:58;21.67;;;13.85;;
71162;SDS011;58858;50.948;6.566;2022-12-05T22:26:59;18.13;;;11.75;;
71162;SDS011;58858;50.948;6.566;2022-12-05T22:37:00;18.27;;;12.85;;
71162;SDS011;58858;50.948;6.566;2022-12-05T22:47:01;20.90;;;13.20;;
71162;SDS011;58858;50.948;6.566;2022-12-05T22:57:02;19.27;;;11.13;;
71162;SDS011;58858;50.948;6.566;2022-12-05T23:07:04;23.85;;;12.32;;
71162;SDS011;58858;50.948;6.566;2022-12-05T23:17:05;18.85;;;12.60;;
71162;SDS011;58858;50.948;6.566;2022-12-05T23:27:06;17.27;;;10.93;;
71162;SDS011;58858;50.948;6.566;2022-12-05T23:37:07;14.07;;;10.07;;
71162;SDS011;58858;50.948;6.566;2022-12-05T23:47:08;15.35;;;9.73;;
71162;SDS011;58858;50.948;6.566;2022-12-05T23:57:11;16.33;;;10.35;;
